Detroit, MI

10:51 PM EDT on October 24, 2014 (GMT -0400)
IPH North End @ Considine Center | Change Station
CLOSE
Current Station
Personal Weather Station
Location: Detroit, MI
Elevation: 640 ft
Nearby Weather Stations

Elev 640 ft 42.38 °N, 83.08 °W | Updated 5 seconds ago

Overcast
Overcast
56.5 °F
Feels Like 56.5 °F
N
2.0
Wind Variable Wind from SSW
Gusts 3.0 mph

Today
High -- | Low -- °F
--% Chance of Precip.
Yesterday
High -- | Low -- °F
Precip. -- in
7:55 AM 6:36 PM
New Moon, 2% visible
Pressure 29.98 in
Visibility 10.0 miles
Clouds Overcast 4400 ft
Dew Point 49 °F
Humidity 75%
Rainfall 0.00 in
Snow Depth Not available.
UV 0 out of 12
Pollen .10 out of 12
Air Quality Not available.
Flu Activity Not available.
METAR KDET 250153Z 24006KT 10SM OVC044 14/08 A2997 RMK AO2 SLP151 T01440078

More Conditions Fewer Conditions

Pressure 29.98 in
Visibility 10.0 miles
Clouds Overcast 4400 ft
Dew Point 49 °F
Humidity 75%
Rainfall 0.00 in
Snow Depth Not available.
UV 0 out of 12
Pollen .10 out of 12
Air Quality Not available.
Flu Activity Not available.
METAR KDET 250153Z 24006KT 10SM OVC044 14/08 A2997 RMK AO2 SLP151 T01440078

More Conditions Fewer Conditions

10-Day Weather Forecast

Almanac

Astronomy

Oct. 24, 2014 Rise Set
Actual Time 7:55 AM EDT 6:36 PM EDT
Civil Twilight 7:26 AM EDT 7:05 PM EDT
Nautical Twilight 6:54 AM EDT 7:37 PM EDT
Astronomical Twilight 6:21 AM EDT 8:10 PM EDT
Moon 8:34 AM EDT (10/24) 7:14 PM EDT (10/24)
Length of Visible Light 11h 38m
Length of Day
10h 40m
Tomorrow will be 2m 39s shorter.
New Moon, 2% of the Moon is Illuminated
Today
New Moon
Oct 30
First Quarter
Nov 6
Full
Nov 14
Last Quarter
Nov 22
New

Today's Extremes

State Highs State Lows

Community

WunderPhotos

Upload Photos

1,764,760 photos uploaded!

Nearby

Snow Depth

Station Depth Elevation
No new snow has been reported.

Earthquake Activity

City Distance Mag. Time & Date
No recent earthquake activity has been reported nearby.
Minimum magnitude displayed is 2.5.

Coastal Water Temperatures

Place Temperature
Marblehead, OH 53.1 °F

Nearby Weather Stations